CZFM/ZFM METAR and TAF weather

Enter ICAO airport designator
Station Type Date Time Source
CZFM METAR 2022/01/27 23:00 UTC NOAA

CZFM 272300Z 01004KT 2SM -SN OVC052 M21/M25 A3046 RMK NS8 SLP323


Station Type Date Time Source
CZFM Decoded METAR 2022/01/27 23:00 UTC NOAA

Fort Mcpherson Airport, Canada (CZFM) 67-24N 134-51W
Jan 27, 2022 - 06:00 PM EST / 2022.01.27 2300 UTC
Wind: from the N (010 degrees) at 5 MPH (4 KT):0
Visibility: 2 mile(s):0
Sky conditions: overcast
Weather: light snow
Temperature: -5 F (-21 C)
Windchill: -16 F (-27 C):2
Dew Point: -13 F (-25 C)
Relative Humidity: 70%
Pressure (altimeter): 30.46 in. Hg (1031 hPa)
ob: CZFM 272300Z 01004KT 2SM -SN OVC052 M21/M25 A3046 RMK NS8 SLP323
cycle: 23

Station Type Date Time Source
CZFM TAF 2022/01/27 20:33 UTC NOAA

TAF
AMD TAF
AMD CZFM 272030Z 2720/2724 VRB03KT P6SM BKN050
TEMPO 2720/2724 2SM -SN BKN020 OVC040
RMK NXT FCST BY 281600Z

Example: see airport list